In Rescue
 
Open Full Screen Window  High Contrast Mode
July 23, 2019 1:10 AM EDT
Weather Information
Wind Direction
  ---
Wind Speed
  00 kt (0 mph)
Wind Gust
  00 kt (0 mph)
Altimeter
29.88 in
Visibility
10 SM
Temperature
15° C
59° F
Dewpoint
15° C
59° F
Humidity
100%
Sky Condition
Broken @ 12,000 ft
Scattered @ 9,500 ft
VFR

METAR KEFK 230510Z AUTO 00000KT 10SM SCT095 BKN120 15/15 A2988 RMK AO2 T01460146

FAA Disclaimer: The data displayed is for advisory purposes only and is not to be used for flight planning or operations.